Theux, Belgium
Current Conditions -  °F | °C
As of 11:50 PM on Thursday 23 Oct 2014 (Local Time) from EBLB Reporting Station
Broken Clouds Broken Clouds  
Wind Chill: 41°   Ceiling: 400
Heat Index: 45°   Visibility: 3mi
Dew Point: 45°   Wind: 6mph
Humidity: 100%   Direction: 200°SSW
Pressure: 30.21"   Gusts: NA
Location:  50.53°N, 5.81°E
Report Text: EBLB 232150Z AUTO 20005KT 5000 SCT002/// BKN004/// BKN006/// 07/07 Q1023 AMB
Loading
Personal Weather Stations






























Interactive Weather Map
Tropical Storm Tracking
New forecast layout! Learn more

10-Day Weather Forecast

Advertisements
Track Severe Weather on mobile